Accueil
METAR-TAF:

METAR-TAF

Aéroports :

Cassel, Allemagne

latitude: 51-24N, longitude: 009-23E, altitude: 277 m

Observation

Le bulletin a été fait il y a 9 heures et 13 minutes, à 17:50 UTC
Vent 6 kt de nord/nord-est, variant entre nord et est/nord-est
Température 9°C
Humidité 46%
Pression 1024 hPa
Visibilité 10 km ou plus
pas de nuages en-dessous de 1500 mètres et pas de cumulonimbus.

METAR: EDVK 161750Z 03006KT 360V060 CAVOK 09/M02 Q1024

Heure: 05:03 (03:03 UTC)

Prévision

Le bulletin a été fait il y a 10 heures et 3 minutes, à 17:00 UTC
Prévision valable du 16 à 18 UTC au 17 à 03 UTC
Vent 6 kt de nord/nord-est
Visibilité 10 km ou plus
pas de nuages en-dessous de 1500 mètres et pas de cumulonimbus.
Evoluant progressivement
du 16 à 18 UTC au 16 à 20 UTC
Vent 3 kt de nord-ouest

TAF: EDVK 161700Z 1618/1703 02006KT CAVOK BECMG 1618/1620 31003KT

Observations et prévisions météorologiques de plus de 4000 aéroports (messages METAR et TAF).

Les stations disponibles sont représentées par des disques jaunes et rouges sur la carte.

Passer la souris dessus pour voir le nom de la station.

Cliquer dessus pour voir les observations et prévisions météorologiques.

Pour changer de carte: cliquez sur les boutons verts avec une croix noire pour zoomer, sur le bouton vert avec un tiret pour effectuer un zoom arrière, ou sur les flèches vertes pour les cartes adjacentes.


METAR-TAF: